sensor_id;sensor_type;location;lat;lon;timestamp;temperature;humidity
54006;DHT22;39919;38.160;-122.260;2023-07-29T00:00:13;27.80;49.30
54006;DHT22;39919;38.160;-122.260;2023-07-29T00:02:42;27.70;49.50
54006;DHT22;39919;38.160;-122.260;2023-07-29T00:05:11;27.70;49.50
54006;DHT22;39919;38.160;-122.260;2023-07-29T00:07:43;27.70;49.40
54006;DHT22;39919;38.160;-122.260;2023-07-29T00:10:14;27.70;49.40
54006;DHT22;39919;38.160;-122.260;2023-07-29T00:12:43;27.60;49.80
54006;DHT22;39919;38.160;-122.260;2023-07-29T00:15:12;27.60;50.00
54006;DHT22;39919;38.160;-122.260;2023-07-29T00:17:42;27.60;50.20
54006;DHT22;39919;38.160;-122.260;2023-07-29T00:20:11;27.60;50.60
54006;DHT22;39919;38.160;-122.260;2023-07-29T00:22:40;27.50;50.60
54006;DHT22;39919;38.160;-122.260;2023-07-29T00:25:09;27.50;50.60
54006;DHT22;39919;38.160;-122.260;2023-07-29T00:27:40;27.40;50.70
54006;DHT22;39919;38.160;-122.260;2023-07-29T00:30:09;27.40;50.50
54006;DHT22;39919;38.160;-122.260;2023-07-29T00:32:39;27.40;50.60
54006;DHT22;39919;38.160;-122.260;2023-07-29T00:35:08;27.30;50.80
54006;DHT22;39919;38.160;-122.260;2023-07-29T00:37:38;27.30;50.90
54006;DHT22;39919;38.160;-122.260;2023-07-29T00:40:14;27.30;51.10
54006;DHT22;39919;38.160;-122.260;2023-07-29T00:42:46;27.20;50.90
54006;DHT22;39919;38.160;-122.260;2023-07-29T00:45:15;27.20;50.90
54006;DHT22;39919;38.160;-122.260;2023-07-29T00:47:44;27.10;51.10
54006;DHT22;39919;38.160;-122.260;2023-07-29T00:50:14;27.10;51.10
54006;DHT22;39919;38.160;-122.260;2023-07-29T00:52:46;27.10;51.30
54006;DHT22;39919;38.160;-122.260;2023-07-29T00:55:15;27.10;51.30
54006;DHT22;39919;38.160;-122.260;2023-07-29T00:57:46;27.00;51.30
54006;DHT22;39919;38.160;-122.260;2023-07-29T01:00:18;26.90;51.40
54006;DHT22;39919;38.160;-122.260;2023-07-29T01:02:47;26.90;51.70
54006;DHT22;39919;38.160;-122.260;2023-07-29T01:05:17;26.80;52.10
54006;DHT22;39919;38.160;-122.260;2023-07-29T01:07:50;26.80;51.90
54006;DHT22;39919;38.160;-122.260;2023-07-29T01:10:30;26.70;51.60
54006;DHT22;39919;38.160;-122.260;2023-07-29T01:13:06;26.70;51.70
54006;DHT22;39919;38.160;-122.260;2023-07-29T01:15:45;26.60;51.60
54006;DHT22;39919;38.160;-122.260;2023-07-29T01:18:21;26.60;51.80
54006;DHT22;39919;38.160;-122.260;2023-07-29T01:20:53;26.50;52.00
54006;DHT22;39919;38.160;-122.260;2023-07-29T01:23:26;26.50;52.30
54006;DHT22;39919;38.160;-122.260;2023-07-29T01:48:40;25.50;90.90
54006;DHT22;39919;38.160;-122.260;2023-07-29T01:53:39;24.50;82.60
54006;DHT22;39919;38.160;-122.260;2023-07-29T01:56:08;25.40;55.40
54006;DHT22;39919;38.160;-122.260;2023-07-29T01:58:38;25.30;72.80
54006;DHT22;39919;38.160;-122.260;2023-07-29T02:21:00;24.30;91.80
54006;DHT22;39919;38.160;-122.260;2023-07-29T02:23:29;24.50;88.50
54006;DHT22;39919;38.160;-122.260;2023-07-29T02:25:59;24.40;90.20
54006;DHT22;39919;38.160;-122.260;2023-07-29T02:28:29;24.30;88.60
54006;DHT22;39919;38.160;-122.260;2023-07-29T02:33:42;23.90;92.70
54006;DHT22;39919;38.160;-122.260;2023-07-29T03:16:30;22.50;59.30
54006;DHT22;39919;38.160;-122.260;2023-07-29T03:18:59;22.40;60.30
54006;DHT22;39919;38.160;-122.260;2023-07-29T03:21:29;22.20;60.90
54006;DHT22;39919;38.160;-122.260;2023-07-29T03:23:58;22.10;61.40
54006;DHT22;39919;38.160;-122.260;2023-07-29T03:26:27;22.00;61.80
54006;DHT22;39919;38.160;-122.260;2023-07-29T03:28:56;21.90;62.20
54006;DHT22;39919;38.160;-122.260;2023-07-29T03:31:27;21.80;62.20
54006;DHT22;39919;38.160;-122.260;2023-07-29T03:33:56;21.70;62.40
54006;DHT22;39919;38.160;-122.260;2023-07-29T03:36:25;21.60;62.40
54006;DHT22;39919;38.160;-122.260;2023-07-29T03:38:55;21.50;63.00
54006;DHT22;39919;38.160;-122.260;2023-07-29T03:41:25;21.40;63.10
54006;DHT22;39919;38.160;-122.260;2023-07-29T03:43:56;21.30;63.50
54006;DHT22;39919;38.160;-122.260;2023-07-29T03:46:27;21.20;64.20
54006;DHT22;39919;38.160;-122.260;2023-07-29T03:48:59;21.10;63.80
54006;DHT22;39919;38.160;-122.260;2023-07-29T03:51:28;21.10;64.60
54006;DHT22;39919;38.160;-122.260;2023-07-29T03:53:57;21.00;64.50
54006;DHT22;39919;38.160;-122.260;2023-07-29T03:56:26;20.90;64.60
54006;DHT22;39919;38.160;-122.260;2023-07-29T03:59:02;20.80;64.70
54006;DHT22;39919;38.160;-122.260;2023-07-29T04:01:37;20.70;64.70
54006;DHT22;39919;38.160;-122.260;2023-07-29T04:04:06;20.70;65.50
54006;DHT22;39919;38.160;-122.260;2023-07-29T04:06:35;20.60;65.80
54006;DHT22;39919;38.160;-122.260;2023-07-29T04:09:04;20.50;65.60
54006;DHT22;39919;38.160;-122.260;2023-07-29T04:11:34;20.40;66.30
54006;DHT22;39919;38.160;-122.260;2023-07-29T04:14:03;20.40;67.00
54006;DHT22;39919;38.160;-122.260;2023-07-29T04:16:32;20.30;67.20
54006;DHT22;39919;38.160;-122.260;2023-07-29T04:19:02;20.20;67.50
54006;DHT22;39919;38.160;-122.260;2023-07-29T04:21:32;20.20;67.90
54006;DHT22;39919;38.160;-122.260;2023-07-29T04:24:01;20.10;68.10
54006;DHT22;39919;38.160;-122.260;2023-07-29T04:26:30;20.00;68.30
54006;DHT22;39919;38.160;-122.260;2023-07-29T04:28:59;19.90;69.20
54006;DHT22;39919;38.160;-122.260;2023-07-29T04:31:28;19.80;69.00
54006;DHT22;39919;38.160;-122.260;2023-07-29T04:33:57;19.80;69.40
54006;DHT22;39919;38.160;-122.260;2023-07-29T04:36:28;19.70;70.10
54006;DHT22;39919;38.160;-122.260;2023-07-29T04:38:57;19.60;70.50
54006;DHT22;39919;38.160;-122.260;2023-07-29T04:41:27;19.60;70.20
54006;DHT22;39919;38.160;-122.260;2023-07-29T04:43:56;19.60;71.40
54006;DHT22;39919;38.160;-122.260;2023-07-29T04:46:25;19.50;71.30
54006;DHT22;39919;38.160;-122.260;2023-07-29T04:48:54;19.50;71.40
54006;DHT22;39919;38.160;-122.260;2023-07-29T04:51:23;19.40;71.50
54006;DHT22;39919;38.160;-122.260;2023-07-29T04:53:54;19.40;71.20
54006;DHT22;39919;38.160;-122.260;2023-07-29T04:56:24;19.40;71.60
54006;DHT22;39919;38.160;-122.260;2023-07-29T04:58:53;19.40;71.10
54006;DHT22;39919;38.160;-122.260;2023-07-29T05:01:22;19.30;71.00
54006;DHT22;39919;38.160;-122.260;2023-07-29T05:03:52;19.30;70.70
54006;DHT22;39919;38.160;-122.260;2023-07-29T05:06:21;19.30;70.80
54006;DHT22;39919;38.160;-122.260;2023-07-29T05:08:50;19.30;69.90
54006;DHT22;39919;38.160;-122.260;2023-07-29T05:11:21;19.20;69.30
54006;DHT22;39919;38.160;-122.260;2023-07-29T05:13:52;19.20;68.10
54006;DHT22;39919;38.160;-122.260;2023-07-29T05:16:21;19.20;67.00
54006;DHT22;39919;38.160;-122.260;2023-07-29T05:18:51;19.20;66.20
54006;DHT22;39919;38.160;-122.260;2023-07-29T05:21:20;19.10;65.50
54006;DHT22;39919;38.160;-122.260;2023-07-29T05:23:49;19.10;65.40
54006;DHT22;39919;38.160;-122.260;2023-07-29T05:26:18;19.00;65.20
54006;DHT22;39919;38.160;-122.260;2023-07-29T05:28:48;19.00;65.20
54006;DHT22;39919;38.160;-122.260;2023-07-29T05:31:18;18.90;64.90
54006;DHT22;39919;38.160;-122.260;2023-07-29T05:33:47;18.90;65.30
54006;DHT22;39919;38.160;-122.260;2023-07-29T05:36:16;18.90;65.20
54006;DHT22;39919;38.160;-122.260;2023-07-29T05:38:45;18.80;65.20
54006;DHT22;39919;38.160;-122.260;2023-07-29T05:41:14;18.80;66.10
54006;DHT22;39919;38.160;-122.260;2023-07-29T05:43:43;18.80;68.30
54006;DHT22;39919;38.160;-122.260;2023-07-29T05:46:15;18.80;70.10
54006;DHT22;39919;38.160;-122.260;2023-07-29T05:48:44;18.80;70.80
54006;DHT22;39919;38.160;-122.260;2023-07-29T05:51:13;18.70;70.80
54006;DHT22;39919;38.160;-122.260;2023-07-29T05:53:42;18.70;70.50
54006;DHT22;39919;38.160;-122.260;2023-07-29T05:56:11;18.70;69.30
54006;DHT22;39919;38.160;-122.260;2023-07-29T05:58:41;18.70;68.50
54006;DHT22;39919;38.160;-122.260;2023-07-29T06:01:11;18.60;68.20
54006;DHT22;39919;38.160;-122.260;2023-07-29T06:03:41;18.60;67.80
54006;DHT22;39919;38.160;-122.260;2023-07-29T06:06:10;18.60;67.50
54006;DHT22;39919;38.160;-122.260;2023-07-29T06:08:40;18.50;67.70
54006;DHT22;39919;38.160;-122.260;2023-07-29T06:11:09;18.50;68.00
54006;DHT22;39919;38.160;-122.260;2023-07-29T06:13:38;18.50;67.70
54006;DHT22;39919;38.160;-122.260;2023-07-29T06:16:07;18.40;68.00
54006;DHT22;39919;38.160;-122.260;2023-07-29T06:18:35;18.40;67.60
54006;DHT22;39919;38.160;-122.260;2023-07-29T06:21:05;18.40;67.80
54006;DHT22;39919;38.160;-122.260;2023-07-29T06:23:34;18.30;67.80
54006;DHT22;39919;38.160;-122.260;2023-07-29T06:26:04;18.30;67.70
54006;DHT22;39919;38.160;-122.260;2023-07-29T06:28:34;18.20;67.60
54006;DHT22;39919;38.160;-122.260;2023-07-29T06:31:03;18.20;68.10
54006;DHT22;39919;38.160;-122.260;2023-07-29T06:33:32;18.10;68.00
54006;DHT22;39919;38.160;-122.260;2023-07-29T06:36:01;18.10;67.70
54006;DHT22;39919;38.160;-122.260;2023-07-29T06:38:32;18.10;68.00
54006;DHT22;39919;38.160;-122.260;2023-07-29T06:41:01;18.00;68.80
54006;DHT22;39919;38.160;-122.260;2023-07-29T06:43:30;18.00;68.50
54006;DHT22;39919;38.160;-122.260;2023-07-29T06:45:59;17.90;70.70
54006;DHT22;39919;38.160;-122.260;2023-07-29T06:48:28;17.90;70.30
54006;DHT22;39919;38.160;-122.260;2023-07-29T06:50:58;17.90;71.80
54006;DHT22;39919;38.160;-122.260;2023-07-29T06:53:29;17.90;73.20
54006;DHT22;39919;38.160;-122.260;2023-07-29T06:56:00;17.90;73.50
54006;DHT22;39919;38.160;-122.260;2023-07-29T06:58:29;17.80;73.20
54006;DHT22;39919;38.160;-122.260;2023-07-29T07:00:58;17.80;72.30
54006;DHT22;39919;38.160;-122.260;2023-07-29T07:03:27;17.80;72.30
54006;DHT22;39919;38.160;-122.260;2023-07-29T07:05:56;17.80;72.20
54006;DHT22;39919;38.160;-122.260;2023-07-29T07:08:25;17.70;71.40
54006;DHT22;39919;38.160;-122.260;2023-07-29T07:10:54;17.70;71.00
54006;DHT22;39919;38.160;-122.260;2023-07-29T07:13:25;17.70;71.20
54006;DHT22;39919;38.160;-122.260;2023-07-29T07:15:55;17.70;71.00
54006;DHT22;39919;38.160;-122.260;2023-07-29T07:18:25;17.60;70.70
54006;DHT22;39919;38.160;-122.260;2023-07-29T07:20:54;17.60;70.70
54006;DHT22;39919;38.160;-122.260;2023-07-29T07:23:24;17.50;70.60
54006;DHT22;39919;38.160;-122.260;2023-07-29T07:25:53;17.50;70.90
54006;DHT22;39919;38.160;-122.260;2023-07-29T07:28:22;17.40;70.90
54006;DHT22;39919;38.160;-122.260;2023-07-29T07:30:53;17.40;70.60
54006;DHT22;39919;38.160;-122.260;2023-07-29T07:33:22;17.30;70.60
54006;DHT22;39919;38.160;-122.260;2023-07-29T07:35:52;17.30;70.60
54006;DHT22;39919;38.160;-122.260;2023-07-29T07:38:21;17.20;70.90
54006;DHT22;39919;38.160;-122.260;2023-07-29T07:40:54;17.10;70.80
54006;DHT22;39919;38.160;-122.260;2023-07-29T07:43:23;17.10;71.00
54006;DHT22;39919;38.160;-122.260;2023-07-29T07:45:58;17.10;71.00
54006;DHT22;39919;38.160;-122.260;2023-07-29T07:48:28;17.00;70.80
54006;DHT22;39919;38.160;-122.260;2023-07-29T07:50:57;17.00;71.50
54006;DHT22;39919;38.160;-122.260;2023-07-29T07:53:26;16.90;71.60
54006;DHT22;39919;38.160;-122.260;2023-07-29T07:55:55;16.90;72.10
54006;DHT22;39919;38.160;-122.260;2023-07-29T07:58:24;16.90;71.80
54006;DHT22;39919;38.160;-122.260;2023-07-29T08:01:01;16.80;72.00
54006;DHT22;39919;38.160;-122.260;2023-07-29T08:03:31;16.80;72.20
54006;DHT22;39919;38.160;-122.260;2023-07-29T08:06:00;16.80;72.20
54006;DHT22;39919;38.160;-122.260;2023-07-29T08:08:29;16.70;72.20
54006;DHT22;39919;38.160;-122.260;2023-07-29T08:10:58;16.70;72.50
54006;DHT22;39919;38.160;-122.260;2023-07-29T08:13:30;16.70;73.50
54006;DHT22;39919;38.160;-122.260;2023-07-29T08:16:01;16.60;73.40
54006;DHT22;39919;38.160;-122.260;2023-07-29T08:18:30;16.60;74.10
54006;DHT22;39919;38.160;-122.260;2023-07-29T08:21:00;16.60;73.90
54006;DHT22;39919;38.160;-122.260;2023-07-29T08:23:31;16.50;73.90
54006;DHT22;39919;38.160;-122.260;2023-07-29T08:26:01;16.50;73.50
54006;DHT22;39919;38.160;-122.260;2023-07-29T08:28:35;16.50;73.80
54006;DHT22;39919;38.160;-122.260;2023-07-29T08:31:06;16.40;73.60
54006;DHT22;39919;38.160;-122.260;2023-07-29T08:33:35;16.40;73.90
54006;DHT22;39919;38.160;-122.260;2023-07-29T08:36:04;16.40;74.20
54006;DHT22;39919;38.160;-122.260;2023-07-29T08:38:33;16.40;74.30
54006;DHT22;39919;38.160;-122.260;2023-07-29T08:41:10;16.30;74.00
54006;DHT22;39919;38.160;-122.260;2023-07-29T08:43:48;16.40;74.90
54006;DHT22;39919;38.160;-122.260;2023-07-29T08:46:21;16.30;75.30
54006;DHT22;39919;38.160;-122.260;2023-07-29T08:48:51;16.30;75.60
54006;DHT22;39919;38.160;-122.260;2023-07-29T08:51:22;16.30;77.40
54006;DHT22;39919;38.160;-122.260;2023-07-29T08:53:52;16.30;79.80
54006;DHT22;39919;38.160;-122.260;2023-07-29T08:56:21;16.30;79.60
54006;DHT22;39919;38.160;-122.260;2023-07-29T08:58:50;16.30;80.10
54006;DHT22;39919;38.160;-122.260;2023-07-29T09:01:22;16.30;80.90
54006;DHT22;39919;38.160;-122.260;2023-07-29T09:03:52;16.30;81.00
54006;DHT22;39919;38.160;-122.260;2023-07-29T09:09:07;16.30;79.40
54006;DHT22;39919;38.160;-122.260;2023-07-29T09:11:37;16.20;78.40
54006;DHT22;39919;38.160;-122.260;2023-07-29T09:14:06;16.20;77.90
54006;DHT22;39919;38.160;-122.260;2023-07-29T09:16:37;16.20;77.30
54006;DHT22;39919;38.160;-122.260;2023-07-29T09:19:06;16.20;77.00
54006;DHT22;39919;38.160;-122.260;2023-07-29T09:21:39;16.10;76.70
54006;DHT22;39919;38.160;-122.260;2023-07-29T09:24:08;16.10;76.50
54006;DHT22;39919;38.160;-122.260;2023-07-29T09:26:38;16.10;76.70
54006;DHT22;39919;38.160;-122.260;2023-07-29T09:29:07;16.10;76.70
54006;DHT22;39919;38.160;-122.260;2023-07-29T09:31:37;16.00;76.70
54006;DHT22;39919;38.160;-122.260;2023-07-29T09:34:07;16.00;76.30
54006;DHT22;39919;38.160;-122.260;2023-07-29T09:36:36;15.90;76.10
54006;DHT22;39919;38.160;-122.260;2023-07-29T09:39:11;15.90;76.40
54006;DHT22;39919;38.160;-122.260;2023-07-29T09:41:41;15.90;77.20
54006;DHT22;39919;38.160;-122.260;2023-07-29T09:44:15;15.90;78.10
54006;DHT22;39919;38.160;-122.260;2023-07-29T09:46:46;15.80;76.30
54006;DHT22;39919;38.160;-122.260;2023-07-29T09:49:18;15.80;76.00
54006;DHT22;39919;38.160;-122.260;2023-07-29T09:51:47;15.70;76.00
54006;DHT22;39919;38.160;-122.260;2023-07-29T09:54:17;15.70;75.80
54006;DHT22;39919;38.160;-122.260;2023-07-29T09:56:48;15.60;76.40
54006;DHT22;39919;38.160;-122.260;2023-07-29T09:59:19;15.60;76.70
54006;DHT22;39919;38.160;-122.260;2023-07-29T10:01:53;15.60;76.30
54006;DHT22;39919;38.160;-122.260;2023-07-29T10:04:23;15.60;76.40
54006;DHT22;39919;38.160;-122.260;2023-07-29T10:06:52;15.50;76.60
54006;DHT22;39919;38.160;-122.260;2023-07-29T10:09:22;15.50;76.50
54006;DHT22;39919;38.160;-122.260;2023-07-29T10:11:52;15.50;76.80
54006;DHT22;39919;38.160;-122.260;2023-07-29T10:14:22;15.50;76.90
54006;DHT22;39919;38.160;-122.260;2023-07-29T10:16:54;15.50;76.90
54006;DHT22;39919;38.160;-122.260;2023-07-29T10:19:25;15.60;76.80
54006;DHT22;39919;38.160;-122.260;2023-07-29T10:21:58;15.50;76.70
54006;DHT22;39919;38.160;-122.260;2023-07-29T10:24:30;15.60;76.80
54006;DHT22;39919;38.160;-122.260;2023-07-29T10:27:02;15.60;76.70
54006;DHT22;39919;38.160;-122.260;2023-07-29T10:29:32;15.60;77.00
54006;DHT22;39919;38.160;-122.260;2023-07-29T10:32:08;15.60;77.20
54006;DHT22;39919;38.160;-122.260;2023-07-29T10:34:40;15.60;77.70
54006;DHT22;39919;38.160;-122.260;2023-07-29T10:37:10;15.70;77.40
54006;DHT22;39919;38.160;-122.260;2023-07-29T10:39:40;15.70;78.60
54006;DHT22;39919;38.160;-122.260;2023-07-29T10:42:09;15.60;78.50
54006;DHT22;39919;38.160;-122.260;2023-07-29T10:44:49;15.70;80.30
54006;DHT22;39919;38.160;-122.260;2023-07-29T10:47:21;15.70;80.20
54006;DHT22;39919;38.160;-122.260;2023-07-29T10:49:52;15.70;79.40
54006;DHT22;39919;38.160;-122.260;2023-07-29T10:52:41;15.70;78.80
54006;DHT22;39919;38.160;-122.260;2023-07-29T10:55:25;15.70;78.50
54006;DHT22;39919;38.160;-122.260;2023-07-29T10:58:06;15.70;78.10
54006;DHT22;39919;38.160;-122.260;2023-07-29T11:00:36;15.70;78.30
54006;DHT22;39919;38.160;-122.260;2023-07-29T11:03:08;15.80;78.90
54006;DHT22;39919;38.160;-122.260;2023-07-29T11:05:47;15.80;78.60
54006;DHT22;39919;38.160;-122.260;2023-07-29T11:08:26;15.80;79.60
54006;DHT22;39919;38.160;-122.260;2023-07-29T11:11:06;15.80;80.40
54006;DHT22;39919;38.160;-122.260;2023-07-29T11:13:36;15.80;80.60
54006;DHT22;39919;38.160;-122.260;2023-07-29T11:16:06;15.80;81.40
54006;DHT22;39919;38.160;-122.260;2023-07-29T11:18:37;15.80;82.10
54006;DHT22;39919;38.160;-122.260;2023-07-29T11:21:09;15.80;81.50
54006;DHT22;39919;38.160;-122.260;2023-07-29T11:23:38;15.80;81.20
54006;DHT22;39919;38.160;-122.260;2023-07-29T11:26:07;15.70;80.90
54006;DHT22;39919;38.160;-122.260;2023-07-29T11:28:39;15.70;81.20
54006;DHT22;39919;38.160;-122.260;2023-07-29T11:31:08;15.70;81.20
54006;DHT22;39919;38.160;-122.260;2023-07-29T11:33:39;15.60;82.30
54006;DHT22;39919;38.160;-122.260;2023-07-29T11:36:20;15.70;83.00
54006;DHT22;39919;38.160;-122.260;2023-07-29T11:38:51;15.70;82.10
54006;DHT22;39919;38.160;-122.260;2023-07-29T11:41:20;15.70;82.50
54006;DHT22;39919;38.160;-122.260;2023-07-29T11:43:50;15.60;82.00
54006;DHT22;39919;38.160;-122.260;2023-07-29T11:46:22;15.70;82.00
54006;DHT22;39919;38.160;-122.260;2023-07-29T11:48:54;15.60;81.50
54006;DHT22;39919;38.160;-122.260;2023-07-29T11:51:25;15.60;81.30
54006;DHT22;39919;38.160;-122.260;2023-07-29T11:53:55;15.60;81.70
54006;DHT22;39919;38.160;-122.260;2023-07-29T11:56:27;15.70;81.40
54006;DHT22;39919;38.160;-122.260;2023-07-29T11:58:57;15.70;81.60
54006;DHT22;39919;38.160;-122.260;2023-07-29T12:01:27;15.70;81.70
54006;DHT22;39919;38.160;-122.260;2023-07-29T12:03:58;15.70;82.40
54006;DHT22;39919;38.160;-122.260;2023-07-29T12:06:30;15.70;82.20
54006;DHT22;39919;38.160;-122.260;2023-07-29T12:08:59;15.70;82.30
54006;DHT22;39919;38.160;-122.260;2023-07-29T12:11:29;15.70;82.60
54006;DHT22;39919;38.160;-122.260;2023-07-29T12:14:00;15.70;82.20
54006;DHT22;39919;38.160;-122.260;2023-07-29T12:16:30;15.70;82.30
54006;DHT22;39919;38.160;-122.260;2023-07-29T12:19:06;15.70;82.90
54006;DHT22;39919;38.160;-122.260;2023-07-29T12:21:36;15.70;83.00
54006;DHT22;39919;38.160;-122.260;2023-07-29T12:24:05;15.70;83.20
54006;DHT22;39919;38.160;-122.260;2023-07-29T12:26:36;15.60;83.30
54006;DHT22;39919;38.160;-122.260;2023-07-29T12:29:12;15.60;83.60
54006;DHT22;39919;38.160;-122.260;2023-07-29T12:31:42;15.60;84.00
54006;DHT22;39919;38.160;-122.260;2023-07-29T12:34:18;15.60;84.50
54006;DHT22;39919;38.160;-122.260;2023-07-29T12:36:50;15.60;84.90
54006;DHT22;39919;38.160;-122.260;2023-07-29T12:39:22;15.60;85.50
54006;DHT22;39919;38.160;-122.260;2023-07-29T12:41:53;15.60;86.20
54006;DHT22;39919;38.160;-122.260;2023-07-29T12:44:23;15.60;86.80
54006;DHT22;39919;38.160;-122.260;2023-07-29T12:46:52;15.60;86.70
54006;DHT22;39919;38.160;-122.260;2023-07-29T12:49:23;15.50;87.30
54006;DHT22;39919;38.160;-122.260;2023-07-29T12:51:52;15.50;87.70
54006;DHT22;39919;38.160;-122.260;2023-07-29T12:54:21;15.50;87.70
54006;DHT22;39919;38.160;-122.260;2023-07-29T12:56:51;15.50;88.40
54006;DHT22;39919;38.160;-122.260;2023-07-29T12:59:20;15.50;88.10
54006;DHT22;39919;38.160;-122.260;2023-07-29T13:01:50;15.50;87.60
54006;DHT22;39919;38.160;-122.260;2023-07-29T13:04:19;15.50;87.30
54006;DHT22;39919;38.160;-122.260;2023-07-29T13:06:49;15.50;88.20
54006;DHT22;39919;38.160;-122.260;2023-07-29T13:09:19;15.50;88.50
54006;DHT22;39919;38.160;-122.260;2023-07-29T13:11:48;15.50;88.60
54006;DHT22;39919;38.160;-122.260;2023-07-29T13:14:17;15.50;88.30
54006;DHT22;39919;38.160;-122.260;2023-07-29T13:16:46;15.50;88.60
54006;DHT22;39919;38.160;-122.260;2023-07-29T13:19:15;15.40;89.30
54006;DHT22;39919;38.160;-122.260;2023-07-29T13:21:48;15.40;89.20
54006;DHT22;39919;38.160;-122.260;2023-07-29T13:24:17;15.40;88.80
54006;DHT22;39919;38.160;-122.260;2023-07-29T13:26:59;15.40;89.50
54006;DHT22;39919;38.160;-122.260;2023-07-29T13:29:29;15.40;89.60
54006;DHT22;39919;38.160;-122.260;2023-07-29T13:31:58;15.40;90.00
54006;DHT22;39919;38.160;-122.260;2023-07-29T13:34:27;15.40;89.40
54006;DHT22;39919;38.160;-122.260;2023-07-29T13:36:58;15.40;89.50
54006;DHT22;39919;38.160;-122.260;2023-07-29T13:39:31;15.50;89.90
54006;DHT22;39919;38.160;-122.260;2023-07-29T13:42:00;15.50;89.40
54006;DHT22;39919;38.160;-122.260;2023-07-29T13:44:29;15.60;90.20
54006;DHT22;39919;38.160;-122.260;2023-07-29T13:46:58;15.60;90.00
54006;DHT22;39919;38.160;-122.260;2023-07-29T13:49:28;15.60;90.20
54006;DHT22;39919;38.160;-122.260;2023-07-29T13:51:59;15.60;90.40
54006;DHT22;39919;38.160;-122.260;2023-07-29T13:54:28;15.70;90.40
54006;DHT22;39919;38.160;-122.260;2023-07-29T13:56:57;15.80;90.00
54006;DHT22;39919;38.160;-122.260;2023-07-29T13:59:26;15.80;90.10
54006;DHT22;39919;38.160;-122.260;2023-07-29T14:01:56;15.80;90.00
54006;DHT22;39919;38.160;-122.260;2023-07-29T14:04:25;15.90;89.90
54006;DHT22;39919;38.160;-122.260;2023-07-29T14:06:54;15.90;89.70
54006;DHT22;39919;38.160;-122.260;2023-07-29T14:09:25;15.90;88.90
54006;DHT22;39919;38.160;-122.260;2023-07-29T14:11:57;16.00;89.50
54006;DHT22;39919;38.160;-122.260;2023-07-29T14:14:26;16.10;89.30
54006;DHT22;39919;38.160;-122.260;2023-07-29T14:16:56;16.10;88.70
54006;DHT22;39919;38.160;-122.260;2023-07-29T14:19:25;16.10;88.50
54006;DHT22;39919;38.160;-122.260;2023-07-29T14:21:54;16.20;88.20
54006;DHT22;39919;38.160;-122.260;2023-07-29T14:24:25;16.30;88.70
54006;DHT22;39919;38.160;-122.260;2023-07-29T14:26:54;16.30;89.00
54006;DHT22;39919;38.160;-122.260;2023-07-29T14:29:23;16.30;88.70
54006;DHT22;39919;38.160;-122.260;2023-07-29T14:31:52;16.40;89.00
54006;DHT22;39919;38.160;-122.260;2023-07-29T14:34:21;16.40;89.30
54006;DHT22;39919;38.160;-122.260;2023-07-29T14:36:51;16.40;89.20
54006;DHT22;39919;38.160;-122.260;2023-07-29T14:39:20;16.50;89.20
54006;DHT22;39919;38.160;-122.260;2023-07-29T14:41:53;16.50;89.10
54006;DHT22;39919;38.160;-122.260;2023-07-29T14:44:22;16.50;89.50
54006;DHT22;39919;38.160;-122.260;2023-07-29T14:46:51;16.50;89.50
54006;DHT22;39919;38.160;-122.260;2023-07-29T14:49:21;16.50;89.30
54006;DHT22;39919;38.160;-122.260;2023-07-29T14:51:50;16.60;89.90
54006;DHT22;39919;38.160;-122.260;2023-07-29T14:54:19;16.60;90.00
54006;DHT22;39919;38.160;-122.260;2023-07-29T14:56:48;16.60;89.80
54006;DHT22;39919;38.160;-122.260;2023-07-29T14:59:19;16.70;88.60
54006;DHT22;39919;38.160;-122.260;2023-07-29T15:01:48;16.70;87.80
54006;DHT22;39919;38.160;-122.260;2023-07-29T15:04:18;16.70;87.50
54006;DHT22;39919;38.160;-122.260;2023-07-29T15:06:47;16.80;87.30
54006;DHT22;39919;38.160;-122.260;2023-07-29T15:09:16;16.90;87.20
54006;DHT22;39919;38.160;-122.260;2023-07-29T15:11:45;16.90;86.90
54006;DHT22;39919;38.160;-122.260;2023-07-29T15:14:14;17.00;86.50
54006;DHT22;39919;38.160;-122.260;2023-07-29T15:16:45;17.00;86.20
54006;DHT22;39919;38.160;-122.260;2023-07-29T15:19:14;17.10;86.20
54006;DHT22;39919;38.160;-122.260;2023-07-29T15:21:43;17.10;85.90
54006;DHT22;39919;38.160;-122.260;2023-07-29T15:24:13;17.10;85.60
54006;DHT22;39919;38.160;-122.260;2023-07-29T15:26:42;17.10;85.20
54006;DHT22;39919;38.160;-122.260;2023-07-29T15:29:11;17.20;85.20
54006;DHT22;39919;38.160;-122.260;2023-07-29T15:31:41;17.20;84.70
54006;DHT22;39919;38.160;-122.260;2023-07-29T15:34:12;17.30;84.20
54006;DHT22;39919;38.160;-122.260;2023-07-29T15:36:41;17.30;83.80
54006;DHT22;39919;38.160;-122.260;2023-07-29T15:39:10;17.40;83.50
54006;DHT22;39919;38.160;-122.260;2023-07-29T15:41:39;17.40;83.60
54006;DHT22;39919;38.160;-122.260;2023-07-29T15:44:08;17.50;83.20
54006;DHT22;39919;38.160;-122.260;2023-07-29T15:46:37;17.50;82.90
54006;DHT22;39919;38.160;-122.260;2023-07-29T15:49:06;17.60;82.80
54006;DHT22;39919;38.160;-122.260;2023-07-29T15:51:37;17.60;82.50
54006;DHT22;39919;38.160;-122.260;2023-07-29T15:54:07;17.80;82.30
54006;DHT22;39919;38.160;-122.260;2023-07-29T15:56:36;17.80;81.80
54006;DHT22;39919;38.160;-122.260;2023-07-29T15:59:06;17.90;81.50
54006;DHT22;39919;38.160;-122.260;2023-07-29T16:01:36;18.00;81.10
54006;DHT22;39919;38.160;-122.260;2023-07-29T16:04:06;18.10;80.60
54006;DHT22;39919;38.160;-122.260;2023-07-29T16:06:37;18.10;80.30
54006;DHT22;39919;38.160;-122.260;2023-07-29T16:09:06;18.20;80.00
54006;DHT22;39919;38.160;-122.260;2023-07-29T16:11:35;18.20;79.80
54006;DHT22;39919;38.160;-122.260;2023-07-29T16:14:04;18.30;79.50
54006;DHT22;39919;38.160;-122.260;2023-07-29T16:16:34;18.40;79.20
54006;DHT22;39919;38.160;-122.260;2023-07-29T16:19:03;18.50;79.00
54006;DHT22;39919;38.160;-122.260;2023-07-29T16:21:33;18.50;79.00
54006;DHT22;39919;38.160;-122.260;2023-07-29T16:24:04;18.70;78.20
54006;DHT22;39919;38.160;-122.260;2023-07-29T16:26:33;18.70;77.80
54006;DHT22;39919;38.160;-122.260;2023-07-29T16:29:02;18.90;77.60
54006;DHT22;39919;38.160;-122.260;2023-07-29T16:31:33;19.00;77.20
54006;DHT22;39919;38.160;-122.260;2023-07-29T16:34:02;19.20;76.90
54006;DHT22;39919;38.160;-122.260;2023-07-29T16:36:32;19.30;76.40